createdAt,value
2022-10-05T00:01:33.079Z,10.00
2022-10-05T00:04:16.917Z,10.00
2022-10-05T00:06:48.666Z,10.00
2022-10-05T00:09:21.840Z,10.00
2022-10-05T00:11:52.708Z,10.00
2022-10-05T00:14:27.173Z,10.10
2022-10-05T00:16:57.339Z,10.10
2022-10-05T00:19:34.134Z,10.20
2022-10-05T00:22:12.887Z,10.20
2022-10-05T00:24:41.826Z,10.20
2022-10-05T00:27:19.962Z,10.20
2022-10-05T00:29:51.306Z,10.10
2022-10-05T00:32:22.182Z,10.10
2022-10-05T00:34:50.969Z,10.10
2022-10-05T00:37:19.725Z,10.10
2022-10-05T00:39:48.441Z,10.10
2022-10-05T00:42:41.733Z,10.00
2022-10-05T00:45:16.654Z,10.00
2022-10-05T00:48:02.932Z,10.00
2022-10-05T00:51:05.248Z,10.00
2022-10-05T00:53:45.368Z,10.00
2022-10-05T00:56:32.637Z,9.90
2022-10-05T00:59:28.172Z,9.90
2022-10-05T01:02:03.890Z,9.90
2022-10-05T01:04:45.174Z,9.90
2022-10-05T01:07:30.800Z,9.80
2022-10-05T01:10:11.208Z,9.80
2022-10-05T01:12:51.945Z,9.70
2022-10-05T01:15:32.579Z,9.70
2022-10-05T01:18:13.447Z,9.70
2022-10-05T01:20:58.560Z,9.70
2022-10-05T01:24:08.879Z,9.70
2022-10-05T01:27:16.827Z,9.70
2022-10-05T01:29:55.380Z,9.60
2022-10-05T01:32:32.746Z,9.50
2022-10-05T01:35:18.400Z,9.50
2022-10-05T01:38:00.985Z,9.60
2022-10-05T01:40:40.379Z,9.50
2022-10-05T01:43:20.249Z,9.50
2022-10-05T01:46:02.075Z,9.60
2022-10-05T01:48:49.123Z,9.70
2022-10-05T01:51:31.952Z,9.70
2022-10-05T01:54:14.480Z,9.60
2022-10-05T01:57:01.757Z,9.70
2022-10-05T01:59:51.148Z,9.70
2022-10-05T02:02:25.210Z,9.70
2022-10-05T02:05:04.521Z,9.70
2022-10-05T02:07:42.609Z,9.50
2022-10-05T02:10:22.234Z,9.40
2022-10-05T02:12:58.535Z,9.20
2022-10-05T02:15:34.776Z,9.30
2022-10-05T02:18:12.250Z,9.40
2022-10-05T02:20:44.864Z,9.50
2022-10-05T02:23:23.861Z,9.50
2022-10-05T02:25:55.689Z,9.60
2022-10-05T02:28:30.747Z,9.70
2022-10-05T02:31:08.923Z,9.80
2022-10-05T02:33:39.523Z,9.80
2022-10-05T02:36:17.098Z,9.90
2022-10-05T02:39:03.623Z,9.90
2022-10-05T02:41:49.590Z,10.00
2022-10-05T02:44:35.463Z,10.00
2022-10-05T02:47:18.786Z,10.00
2022-10-05T02:49:55.057Z,10.10
2022-10-05T02:52:30.556Z,10.10
2022-10-05T02:55:14.246Z,10.00
2022-10-05T02:57:54.220Z,10.10
2022-10-05T03:00:26.249Z,10.10
2022-10-05T03:03:05.706Z,10.10
2022-10-05T03:05:43.696Z,10.10
2022-10-05T03:08:23.267Z,10.20
2022-10-05T03:11:02.420Z,10.20
2022-10-05T03:13:44.269Z,10.20
2022-10-05T03:16:36.291Z,10.30
2022-10-05T03:19:23.065Z,10.30
2022-10-05T03:22:03.954Z,10.20
2022-10-05T03:24:56.311Z,10.20
2022-10-05T03:27:41.237Z,10.20
2022-10-05T03:30:17.853Z,10.20
2022-10-05T03:33:03.434Z,10.20
2022-10-05T03:35:41.108Z,10.20
2022-10-05T03:38:21.753Z,10.30
2022-10-05T03:41:00.789Z,10.30
2022-10-05T03:44:06.993Z,10.30
2022-10-05T03:46:50.897Z,10.20
2022-10-05T03:49:34.134Z,10.20
2022-10-05T03:52:11.042Z,10.20
2022-10-05T03:54:46.942Z,10.20
2022-10-05T03:57:21.076Z,10.20
2022-10-05T04:00:04.402Z,10.10
2022-10-05T04:02:41.434Z,10.10
2022-10-05T04:05:19.039Z,10.10
2022-10-05T04:07:55.372Z,10.10
2022-10-05T04:10:30.164Z,10.00
2022-10-05T04:13:07.152Z,9.90
2022-10-05T04:15:42.687Z,9.80
2022-10-05T04:18:24.815Z,9.80
2022-10-05T04:21:00.114Z,9.80
2022-10-05T04:23:44.835Z,9.70
2022-10-05T04:26:21.406Z,9.50
2022-10-05T04:28:59.275Z,9.10
2022-10-05T04:31:52.407Z,9.00
2022-10-05T04:34:49.896Z,8.70
2022-10-05T04:37:30.091Z,8.60
2022-10-05T04:40:19.006Z,8.60
2022-10-05T04:43:04.968Z,8.70
2022-10-05T04:46:02.629Z,8.60
2022-10-05T04:49:04.666Z,8.70
2022-10-05T04:51:46.609Z,8.70
2022-10-05T04:54:35.534Z,8.80
2022-10-05T04:57:11.733Z,8.90
2022-10-05T05:00:05.917Z,8.90
2022-10-05T05:03:04.482Z,8.90
2022-10-05T05:06:12.018Z,8.80
2022-10-05T05:09:05.380Z,8.60
2022-10-05T05:11:45.302Z,8.50
2022-10-05T05:14:39.046Z,8.50
2022-10-05T05:17:29.442Z,8.70
2022-10-05T05:20:13.738Z,8.70
2022-10-05T05:22:51.941Z,8.90
2022-10-05T05:25:43.024Z,8.90
2022-10-05T05:28:28.977Z,9.00
2022-10-05T05:31:12.054Z,9.00
2022-10-05T05:33:57.803Z,9.00
2022-10-05T05:36:47.576Z,9.00
2022-10-05T05:39:27.057Z,8.90
2022-10-05T05:42:04.593Z,8.90
2022-10-05T05:44:43.340Z,8.80
2022-10-05T05:47:21.613Z,8.40
2022-10-05T05:50:32.356Z,8.60
2022-10-05T05:53:11.966Z,8.80
2022-10-05T05:55:46.814Z,8.90
2022-10-05T05:58:24.385Z,9.00
2022-10-05T06:01:00.033Z,9.20
2022-10-05T06:03:36.982Z,9.30
2022-10-05T06:06:12.733Z,9.40
2022-10-05T06:08:46.163Z,9.50
2022-10-05T06:11:23.123Z,9.40
2022-10-05T06:13:52.965Z,9.40
2022-10-05T06:16:30.610Z,9.40
2022-10-05T06:19:05.389Z,9.40
2022-10-05T06:21:45.535Z,9.40
2022-10-05T06:24:22.946Z,9.40
2022-10-05T06:27:27.601Z,9.30
2022-10-05T06:30:14.281Z,9.30
2022-10-05T06:33:08.178Z,9.30
2022-10-05T06:35:54.718Z,9.30
2022-10-05T06:38:47.566Z,9.30
2022-10-05T06:41:33.584Z,9.40
2022-10-05T06:44:10.744Z,9.50
2022-10-05T06:46:51.629Z,9.60
2022-10-05T06:49:26.169Z,9.60
2022-10-05T06:52:02.125Z,9.60
2022-10-05T06:54:53.307Z,9.60
2022-10-05T06:58:04.420Z,9.70
2022-10-05T07:00:41.610Z,9.80
2022-10-05T07:03:28.170Z,9.90
2022-10-05T07:06:16.661Z,10.00
2022-10-05T07:09:12.172Z,10.10
2022-10-05T07:12:05.122Z,10.30
2022-10-05T07:14:55.326Z,10.40
2022-10-05T07:17:45.670Z,10.60
2022-10-05T07:20:25.737Z,10.70
2022-10-05T07:23:40.044Z,10.80
2022-10-05T07:26:18.967Z,11.00
2022-10-05T07:28:56.822Z,11.30
2022-10-05T07:31:36.126Z,11.40
2022-10-05T07:34:16.569Z,11.70
2022-10-05T07:37:14.372Z,12.00
2022-10-05T07:40:06.809Z,12.20
2022-10-05T07:42:52.803Z,12.30
2022-10-05T07:45:31.050Z,12.50
2022-10-05T07:48:10.655Z,12.60
2022-10-05T07:50:58.235Z,12.80
2022-10-05T07:53:36.404Z,12.80
2022-10-05T07:56:18.689Z,12.80
2022-10-05T07:58:57.150Z,12.60
2022-10-05T08:01:32.900Z,12.60
2022-10-05T08:04:10.885Z,12.70
2022-10-05T08:06:50.518Z,12.80
2022-10-05T08:09:42.101Z,12.60
2022-10-05T08:12:42.612Z,12.60
2022-10-05T08:15:17.557Z,12.50
2022-10-05T08:17:56.256Z,12.30
2022-10-05T08:20:42.660Z,12.50
2022-10-05T08:23:25.472Z,12.70
2022-10-05T08:26:15.075Z,13.20
2022-10-05T08:28:52.853Z,13.70
2022-10-05T08:31:26.875Z,14.20
2022-10-05T08:34:16.844Z,14.80
2022-10-05T08:36:57.204Z,15.20
2022-10-05T08:39:30.545Z,15.40
2022-10-05T08:42:44.804Z,15.70
2022-10-05T08:45:52.101Z,16.10
2022-10-05T08:48:43.831Z,16.30
2022-10-05T08:51:45.714Z,16.60
2022-10-05T08:54:54.458Z,16.90
2022-10-05T08:58:14.343Z,17.20
2022-10-05T09:00:57.037Z,17.60
2022-10-05T09:04:20.780Z,18.10
2022-10-05T09:07:22.802Z,18.40
2022-10-05T09:10:48.231Z,18.50
2022-10-05T09:13:44.309Z,18.80
2022-10-05T09:16:49.076Z,19.20
2022-10-05T09:19:54.356Z,19.50
2022-10-05T09:22:39.968Z,19.90
2022-10-05T09:25:24.779Z,20.30
2022-10-05T09:28:01.341Z,21.00
2022-10-05T09:30:57.783Z,21.40
2022-10-05T09:34:06.547Z,21.50
2022-10-05T09:37:28.205Z,21.70
2022-10-05T09:40:47.960Z,22.00
2022-10-05T09:44:08.517Z,22.10
2022-10-05T09:47:12.584Z,22.50
2022-10-05T09:50:22.859Z,23.00
2022-10-05T09:53:34.397Z,23.70
2022-10-05T09:56:37.567Z,24.00
2022-10-05T10:00:16.364Z,24.40
2022-10-05T10:03:48.850Z,24.70
2022-10-05T10:06:50.144Z,25.10
2022-10-05T10:09:38.692Z,25.30
2022-10-05T10:12:36.796Z,25.50
2022-10-05T10:15:41.485Z,25.70
2022-10-05T10:18:53.667Z,26.20
2022-10-05T10:22:02.531Z,26.60
2022-10-05T10:24:59.025Z,26.80
2022-10-05T10:27:54.980Z,26.90
2022-10-05T10:31:02.634Z,26.90
2022-10-05T10:34:10.844Z,26.60
2022-10-05T10:37:06.120Z,26.40
2022-10-05T10:39:58.981Z,26.10
2022-10-05T10:42:42.969Z,25.90
2022-10-05T10:45:27.792Z,25.80
2022-10-05T10:48:05.126Z,25.70
2022-10-05T10:51:12.419Z,26.00
2022-10-05T10:54:46.417Z,26.20
2022-10-05T10:57:22.610Z,26.10
2022-10-05T11:00:28.346Z,26.10
2022-10-05T11:03:28.255Z,26.00
2022-10-05T11:06:25.142Z,25.80
2022-10-05T11:09:56.720Z,25.70
2022-10-05T11:13:18.031Z,25.60
2022-10-05T11:16:27.358Z,25.50
2022-10-05T11:19:40.479Z,25.20
2022-10-05T11:22:49.753Z,25.20
2022-10-05T11:25:51.798Z,25.60
2022-10-05T11:28:41.865Z,26.40
2022-10-05T11:31:59.794Z,27.30
2022-10-05T11:35:00.360Z,28.20
2022-10-05T11:38:30.935Z,29.00
2022-10-05T11:41:25.740Z,29.60
2022-10-05T11:44:20.580Z,30.40
2022-10-05T11:47:04.393Z,30.70
2022-10-05T11:49:43.718Z,31.80
2022-10-05T11:52:22.000Z,32.50
2022-10-05T11:55:12.098Z,32.50
2022-10-05T11:57:51.563Z,32.70
2022-10-05T12:00:22.758Z,33.00
2022-10-05T12:03:32.129Z,33.10
2022-10-05T12:06:42.604Z,33.10
2022-10-05T12:09:34.482Z,33.00
2022-10-05T12:12:22.160Z,33.10
2022-10-05T12:15:03.009Z,33.50
2022-10-05T12:17:39.860Z,34.10
2022-10-05T12:20:19.878Z,34.00
2022-10-05T12:22:58.509Z,33.70
2022-10-05T12:25:35.041Z,33.40
2022-10-05T12:28:12.087Z,33.60
2022-10-05T12:31:27.009Z,33.80
2022-10-05T12:34:09.189Z,34.20
2022-10-05T12:37:03.461Z,34.50
2022-10-05T12:39:44.166Z,34.80
2022-10-05T12:42:30.430Z,34.70
2022-10-05T12:45:27.716Z,34.80
2022-10-05T12:48:20.571Z,34.80
2022-10-05T12:50:53.926Z,34.80
2022-10-05T12:53:48.621Z,35.10
2022-10-05T12:56:31.893Z,35.40
2022-10-05T12:59:14.896Z,35.50
2022-10-05T13:01:52.808Z,35.70
2022-10-05T13:04:42.571Z,35.70
2022-10-05T13:07:36.473Z,36.10
2022-10-05T13:10:34.388Z,36.70
2022-10-05T13:13:39.479Z,36.80
2022-10-05T13:16:22.881Z,36.60
2022-10-05T13:19:14.084Z,36.10
2022-10-05T13:22:24.982Z,35.90
2022-10-05T13:25:09.470Z,35.60
2022-10-05T13:27:49.129Z,35.60
2022-10-05T13:30:20.539Z,35.70
2022-10-05T13:32:58.393Z,35.80
2022-10-05T13:35:43.991Z,35.70
2022-10-05T13:38:31.832Z,35.60
2022-10-05T13:41:17.418Z,35.30
2022-10-05T13:44:04.762Z,35.30
2022-10-05T13:46:43.846Z,35.50
2022-10-05T13:49:28.959Z,36.20
2022-10-05T13:52:17.673Z,36.80
2022-10-05T13:54:56.808Z,37.20
2022-10-05T13:57:53.898Z,37.50
2022-10-05T14:00:26.924Z,37.80
2022-10-05T14:02:58.394Z,38.00
2022-10-05T14:05:29.352Z,38.00
2022-10-05T14:08:11.241Z,38.10
2022-10-05T14:10:43.150Z,38.20
2022-10-05T14:13:26.699Z,38.10
2022-10-05T14:16:22.085Z,38.10
2022-10-05T14:19:16.669Z,37.90
2022-10-05T14:21:54.787Z,37.80
2022-10-05T14:24:46.865Z,38.00
2022-10-05T14:27:24.603Z,38.30
2022-10-05T14:30:02.372Z,38.20
2022-10-05T14:32:44.996Z,38.20
2022-10-05T14:35:18.484Z,37.80
2022-10-05T14:37:57.219Z,37.60
2022-10-05T14:40:35.723Z,37.70
2022-10-05T14:43:21.094Z,37.70
2022-10-05T14:45:57.178Z,37.70
2022-10-05T14:48:29.250Z,37.90
2022-10-05T14:51:02.257Z,37.90
2022-10-05T14:53:40.516Z,37.70
2022-10-05T14:56:41.988Z,37.50
2022-10-05T14:59:30.348Z,36.70
2022-10-05T15:02:18.220Z,36.10
2022-10-05T15:05:02.810Z,35.80
2022-10-05T15:07:40.655Z,35.70
2022-10-05T15:10:30.466Z,35.60
2022-10-05T15:13:11.645Z,35.40
2022-10-05T15:15:50.916Z,35.00
2022-10-05T15:18:36.380Z,34.80
2022-10-05T15:21:36.643Z,35.00
2022-10-05T15:24:10.414Z,35.60
2022-10-05T15:26:51.764Z,35.60
2022-10-05T15:29:51.295Z,35.40
2022-10-05T15:32:41.719Z,35.30
2022-10-05T15:35:38.143Z,34.80
2022-10-05T15:38:22.728Z,34.30
2022-10-05T15:41:09.369Z,34.20
2022-10-05T15:43:50.507Z,33.80
2022-10-05T15:46:26.581Z,32.80
2022-10-05T15:49:11.645Z,31.60
2022-10-05T15:51:54.183Z,30.50
2022-10-05T15:54:52.539Z,29.60
2022-10-05T15:57:34.300Z,28.80
2022-10-05T16:00:11.680Z,28.10
2022-10-05T16:02:49.371Z,27.40
2022-10-05T16:05:52.877Z,26.70
2022-10-05T16:08:51.630Z,26.20
2022-10-05T16:11:36.641Z,25.60
2022-10-05T16:14:22.879Z,25.10
2022-10-05T16:17:16.455Z,24.50
2022-10-05T16:20:03.854Z,23.90
2022-10-05T16:22:43.949Z,23.50
2022-10-05T16:25:23.340Z,23.20
2022-10-05T16:28:12.714Z,22.80
2022-10-05T16:31:00.447Z,22.40
2022-10-05T16:33:46.982Z,22.20
2022-10-05T16:36:31.668Z,21.90
2022-10-05T16:39:12.076Z,21.80
2022-10-05T16:41:51.308Z,21.60
2022-10-05T16:44:35.746Z,21.40
2022-10-05T16:47:27.397Z,21.10
2022-10-05T16:50:13.289Z,20.80
2022-10-05T16:52:47.060Z,20.60
2022-10-05T16:55:32.434Z,20.40
2022-10-05T16:58:06.960Z,20.30
2022-10-05T17:00:58.150Z,20.20
2022-10-05T17:03:42.355Z,20.00
2022-10-05T17:06:38.095Z,19.80
2022-10-05T17:09:59.381Z,19.70
2022-10-05T17:12:46.852Z,19.50
2022-10-05T17:15:39.812Z,19.40
2022-10-05T17:18:28.445Z,19.30
2022-10-05T17:21:13.607Z,19.20
2022-10-05T17:23:55.925Z,19.20
2022-10-05T17:26:58.203Z,19.20
2022-10-05T17:29:32.364Z,19.00
2022-10-05T17:32:30.389Z,18.80
2022-10-05T17:35:20.444Z,18.70
2022-10-05T17:38:22.194Z,18.60
2022-10-05T17:41:21.049Z,18.50
2022-10-05T17:44:27.828Z,18.50
2022-10-05T17:46:59.222Z,18.30
2022-10-05T17:50:08.821Z,18.10
2022-10-05T17:53:01.253Z,18.00
2022-10-05T17:56:04.357Z,17.80
2022-10-05T17:59:06.691Z,17.60
2022-10-05T18:01:37.999Z,17.60
2022-10-05T18:04:50.905Z,17.60
2022-10-05T18:07:25.545Z,17.60
2022-10-05T18:10:28.750Z,17.30
2022-10-05T18:13:34.004Z,17.20
2022-10-05T18:16:02.603Z,17.20
2022-10-05T18:18:57.277Z,17.00
2022-10-05T18:21:38.524Z,16.80
2022-10-05T18:24:42.281Z,16.70
2022-10-05T18:28:02.635Z,16.70
2022-10-05T18:30:39.448Z,16.70
2022-10-05T18:33:54.594Z,16.80
2022-10-05T18:36:50.071Z,16.80
2022-10-05T18:39:38.323Z,16.90
2022-10-05T18:42:22.940Z,16.80
2022-10-05T18:44:58.710Z,16.80
2022-10-05T18:47:40.564Z,16.80
2022-10-05T18:50:27.867Z,16.80
2022-10-05T18:53:15.678Z,16.70
2022-10-05T18:55:54.167Z,16.60
2022-10-05T18:58:36.222Z,16.20
2022-10-05T19:01:31.483Z,16.20
2022-10-05T19:04:22.277Z,16.20
2022-10-05T19:07:04.834Z,16.30
2022-10-05T19:09:57.904Z,16.20
2022-10-05T19:12:41.650Z,16.20
2022-10-05T19:15:27.649Z,16.10
2022-10-05T19:18:21.915Z,16.10
2022-10-05T19:21:02.176Z,16.10
2022-10-05T19:23:53.113Z,16.10
2022-10-05T19:26:46.977Z,16.20
2022-10-05T19:29:36.951Z,16.10
2022-10-05T19:32:18.956Z,16.10
2022-10-05T19:35:10.049Z,16.10
2022-10-05T19:37:52.781Z,16.00
2022-10-05T19:40:30.676Z,16.00
2022-10-05T19:43:22.310Z,15.90
2022-10-05T19:46:06.388Z,15.90
2022-10-05T19:48:45.547Z,15.80
2022-10-05T19:51:17.836Z,15.80
2022-10-05T19:53:50.163Z,15.70
2022-10-05T19:56:21.846Z,15.70
2022-10-05T19:58:56.382Z,15.70
2022-10-05T20:01:30.876Z,15.60
2022-10-05T20:04:01.208Z,15.60
2022-10-05T20:06:30.254Z,15.60
2022-10-05T20:09:02.030Z,15.50
2022-10-05T20:11:31.555Z,15.40
2022-10-05T20:14:22.030Z,15.40
2022-10-05T20:17:33.352Z,15.40
2022-10-05T20:20:38.238Z,15.30
2022-10-05T20:23:24.505Z,15.20
2022-10-05T20:26:11.363Z,15.20
2022-10-05T20:28:40.218Z,15.20
2022-10-05T20:31:08.940Z,15.20
2022-10-05T20:33:39.011Z,15.20
2022-10-05T20:36:09.168Z,15.10
2022-10-05T20:38:40.978Z,15.10
2022-10-05T20:41:10.479Z,15.00
2022-10-05T20:43:39.495Z,15.00
2022-10-05T20:46:08.675Z,15.00
2022-10-05T20:48:37.204Z,14.90
2022-10-05T20:51:06.075Z,14.90
2022-10-05T20:53:39.316Z,14.90
2022-10-05T20:56:07.921Z,14.90
2022-10-05T20:58:36.434Z,14.80
2022-10-05T21:01:18.165Z,14.80
2022-10-05T21:03:47.279Z,14.70
2022-10-05T21:06:15.818Z,14.70
2022-10-05T21:08:46.809Z,14.70
2022-10-05T21:11:15.660Z,14.70
2022-10-05T21:13:45.770Z,14.60
2022-10-05T21:16:17.373Z,14.60
2022-10-05T21:18:48.819Z,14.60
2022-10-05T21:21:19.026Z,14.50
2022-10-05T21:23:51.279Z,14.50
2022-10-05T21:26:19.916Z,14.50
2022-10-05T21:28:48.634Z,14.40
2022-10-05T21:31:17.061Z,14.40
2022-10-05T21:33:45.708Z,14.40
2022-10-05T21:36:14.837Z,14.40
2022-10-05T21:38:43.694Z,14.30
2022-10-05T21:41:15.485Z,14.20
2022-10-05T21:43:45.331Z,14.10
2022-10-05T21:46:19.919Z,14.00
2022-10-05T21:48:50.369Z,14.00
2022-10-05T21:51:21.042Z,14.00
2022-10-05T21:53:55.039Z,13.90
2022-10-05T21:56:31.508Z,13.90
2022-10-05T21:59:00.776Z,13.90
2022-10-05T22:01:29.767Z,13.80
2022-10-05T22:04:09.217Z,13.70
2022-10-05T22:06:37.929Z,13.70
2022-10-05T22:09:06.981Z,13.70
2022-10-05T22:11:37.041Z,13.70
2022-10-05T22:14:06.896Z,13.70
2022-10-05T22:16:38.910Z,13.70
2022-10-05T22:19:13.801Z,13.70
2022-10-05T22:21:42.536Z,13.70
2022-10-05T22:24:11.735Z,13.70
2022-10-05T22:26:44.739Z,13.70
2022-10-05T22:29:15.677Z,13.60
2022-10-05T22:31:45.285Z,13.60
2022-10-05T22:34:14.118Z,13.60
2022-10-05T22:36:42.851Z,13.50
2022-10-05T22:39:11.759Z,13.50
2022-10-05T22:41:41.623Z,13.50
2022-10-05T22:44:12.067Z,13.50
2022-10-05T22:46:40.525Z,13.50
2022-10-05T22:49:09.029Z,13.40
2022-10-05T22:51:37.610Z,13.30
2022-10-05T22:54:06.513Z,13.20
2022-10-05T22:56:35.573Z,13.10
2022-10-05T22:59:05.445Z,13.10
2022-10-05T23:01:33.935Z,13.10
2022-10-05T23:04:02.503Z,13.10
2022-10-05T23:06:32.666Z,13.10
2022-10-05T23:09:01.243Z,13.00
2022-10-05T23:11:30.277Z,13.00
2022-10-05T23:13:59.978Z,12.90
2022-10-05T23:16:30.426Z,12.80
2022-10-05T23:19:00.185Z,12.90
2022-10-05T23:21:31.385Z,12.80
2022-10-05T23:23:59.861Z,12.80
2022-10-05T23:26:28.474Z,12.70
2022-10-05T23:28:56.939Z,12.80
2022-10-05T23:31:29.021Z,12.70
2022-10-05T23:33:58.933Z,12.80
2022-10-05T23:36:32.406Z,12.60
2022-10-05T23:39:01.401Z,12.50
2022-10-05T23:41:30.003Z,12.50
2022-10-05T23:43:58.447Z,12.50
2022-10-05T23:46:27.018Z,12.50
2022-10-05T23:48:55.553Z,12.50
2022-10-05T23:51:25.397Z,12.50
2022-10-05T23:53:54.240Z,12.50
2022-10-05T23:56:22.774Z,12.50
2022-10-05T23:58:51.261Z,12.50
